Time,TemperatureF,DewpointF,PressureIn,WindDirection,WindDirectionDegrees,WindSpeedMPH,WindSpeedGustMPH,Humidity,HourlyPrecipIn,Conditions,Clouds,dailyrainin,SoftwareType,DateUTC
2013-09-26 00:42:00,53.8,47.1,30.04,East,92,4.0,6.0,78,0.00,,,0.00,Wunderground v.1.15,2013-09-26 04:42:00,
2013-09-26 02:57:00,53.1,46.1,30.03,East,92,3.0,5.0,77,0.00,,,0.00,Wunderground v.1.15,2013-09-26 06:57:00,
2013-09-26 04:12:00,53.6,45.9,30.02,East,92,3.0,5.0,75,0.00,,,0.00,Wunderground v.1.15,2013-09-26 08:12:00,
2013-09-26 05:07:00,52.6,45.9,30.03,East,92,3.0,5.0,78,0.00,,,0.00,Wunderground v.1.15,2013-09-26 09:07:00,
2013-09-26 05:17:00,52.2,45.9,30.03,East,92,3.0,5.0,79,0.00,,,0.00,Wunderground v.1.15,2013-09-26 09:17:00,
2013-09-26 06:12:00,52.0,46.0,30.06,East,92,0.0,5.0,80,0.00,,,0.00,Wunderground v.1.15,2013-09-26 10:12:00,
2013-09-26 07:07:00,49.2,46.7,30.08,East,92,3.0,5.0,91,0.00,,,0.00,Wunderground v.1.15,2013-09-26 11:07:00,
2013-09-26 08:37:00,51.3,49.1,30.11,East,92,0.0,5.0,92,0.00,,,0.00,Wunderground v.1.15,2013-09-26 12:37:00,
2013-09-26 09:33:00,56.5,49.0,30.12,East,92,0.0,5.0,76,0.00,,,0.00,Wunderground v.1.15,2013-09-26 13:33:00,
2013-09-26 11:58:00,65.5,49.9,30.12,East,92,1.0,7.0,57,0.00,,,0.00,Wunderground v.1.15,2013-09-26 15:58:00,
2013-09-26 14:08:00,70.6,49.4,30.09,East,100,2.0,9.0,47,0.00,,,0.00,Wunderground v.1.15,2013-09-26 18:08:00,
2013-09-26 14:43:00,71.6,43.9,30.08,East,100,2.0,2.0,37,0.00,,,0.00,Wunderground v.1.15,2013-09-26 18:43:00,
2013-09-26 19:28:00,64.2,44.1,30.14,East,88,0.0,3.0,48,0.00,,,0.00,Wunderground v.1.15,2013-09-26 23:28:00,
2013-09-26 19:53:00,64.0,44.4,30.14,East,88,0.0,3.0,49,0.00,,,0.00,Wunderground v.1.15,2013-09-26 23:53:00,
2013-09-26 20:48:00,62.7,45.8,30.14,East,88,0.0,3.0,54,0.00,,,0.00,Wunderground v.1.15,2013-09-27 00:48:00,
2013-09-26 21:08:00,62.4,45.5,30.15,East,87,0.0,0.0,54,0.00,,,0.00,Wunderground v.1.15,2013-09-27 01:08:00,
2013-09-26 21:43:00,63.2,45.8,30.14,East,87,0.0,2.0,53,0.00,,,0.00,Wunderground v.1.15,2013-09-27 01:43:00,
2013-09-26 21:53:00,62.3,46.9,30.15,East,87,1.0,1.0,57,0.00,,,0.00,Wunderground v.1.15,2013-09-27 01:53:00,
2013-09-26 22:48:00,56.5,46.8,30.16,East,87,4.0,4.0,70,0.00,,,0.00,Wunderground v.1.15,2013-09-27 02:48:00,
2013-09-26 23:08:00,55.9,47.4,30.16,East,86,4.0,4.0,73,0.00,,,0.00,Wunderground v.1.15,2013-09-27 03:08:00,
2013-09-26 23:52:00,55.6,47.1,30.17,East,86,0.0,5.0,73,0.00,,,0.00,Wunderground v.1.15,2013-09-27 03:52:00,